Time;durP1;ratioP1;P1;durP2;ratioP2;P2;SDS_P1;SDS_P2;PMS_P1;PMS_P2;Temp;Humidity;BMP_temperature;BMP_pressure;BME280_temperature;BME280_humidity;BME280_pressure;Samples;Min_cycle;Max_cycle;Signal;HPM_P1;HPM_P2
2022/03/24 00:02:22;;;;;;;12.50;7.95;;;8.30;62.10;;;;;;4997762;28;20030;-73
2022/03/24 00:04:49;;;;;;;13.65;7.50;;;8.30;62.80;;;;;;5005808;28;20057;-73
2022/03/24 00:07:14;;;;;;;11.65;7.82;;;8.10;63.20;;;;;;4993787;28;20102;-73
2022/03/24 00:09:40;;;;;;;14.25;7.63;;;8.20;62.70;;;;;;4993681;28;20137;-73
2022/03/24 00:12:07;;;;;;;12.75;7.90;;;8.20;62.90;;;;;;4997108;28;20045;-73
2022/03/24 00:14:33;;;;;;;14.05;8.45;;;9.60;64.60;;;;;;4994962;28;20412;-73
2022/03/24 00:16:59;;;;;;;12.77;8.82;;;8.10;63.40;;;;;;4995864;28;20018;-73
2022/03/24 00:19:25;;;;;;;14.55;8.98;;;8.10;63.50;;;;;;4994973;28;20050;-73
2022/03/24 00:21:50;;;;;;;12.27;8.52;;;8.00;63.60;;;;;;4993130;28;20041;-73
2022/03/24 00:24:16;;;;;;;13.57;8.85;;;8.00;63.70;;;;;;4995442;28;20072;-73
2022/03/24 00:26:43;;;;;;;13.25;8.27;;;8.00;63.80;;;;;;4995306;28;20019;-73
2022/03/24 00:29:09;;;;;;;13.43;8.30;;;8.00;63.50;;;;;;4995743;28;20528;-73
2022/03/24 00:31:35;;;;;;;13.75;8.68;;;7.10;63.80;;;;;;4995618;28;20512;-73
2022/03/24 00:34:01;;;;;;;13.20;9.32;;;7.90;63.40;;;;;;4991514;28;20045;-73
2022/03/24 00:36:27;;;;;;;14.20;8.95;;;7.70;64.10;;;;;;4998651;28;20026;-73
2022/03/24 00:38:55;;;;;;;16.30;9.20;;;7.80;63.80;;;;;;4996082;28;20034;-73
2022/03/24 00:41:22;;;;;;;14.70;8.93;;;7.80;64.30;;;;;;4995331;28;20031;-73
2022/03/24 00:43:49;;;;;;;15.15;8.95;;;7.80;64.20;;;;;;4998558;28;20029;-73
2022/03/24 00:46:21;;;;;;;13.48;8.40;;;7.70;64.30;;;;;;5006346;28;20034;-73
2022/03/24 00:48:48;;;;;;;13.00;8.88;;;7.70;64.40;;;;;;4992700;28;20052;-73
2022/03/24 00:51:15;;;;;;;13.43;9.02;;;7.70;64.40;;;;;;4995401;28;20080;-73
2022/03/24 00:53:42;;;;;;;15.65;9.00;;;7.70;64.50;;;;;;5003672;28;20370;-73
2022/03/24 00:56:08;;;;;;;14.45;9.50;;;7.60;64.50;;;;;;5002025;28;20130;-73
2022/03/24 00:58:33;;;;;;;14.88;8.73;;;7.60;64.60;;;;;;4994834;28;20036;-73
2022/03/24 01:00:59;;;;;;;16.15;9.30;;;7.60;64.90;;;;;;4991081;28;20795;-73
2022/03/24 01:03:25;;;;;;;14.95;9.10;;;7.60;65.10;;;;;;4995170;28;20367;-74
2022/03/24 01:05:52;;;;;;;14.65;9.75;;;7.50;65.20;;;;;;4995397;28;20034;-73
2022/03/24 01:08:18;;;;;;;21.15;10.77;;;7.50;65.50;;;;;;4994767;28;20046;-73
2022/03/24 01:10:44;;;;;;;20.52;10.35;;;7.40;65.60;;;;;;4995485;28;20113;-74
2022/03/24 01:13:11;;;;;;;14.02;9.63;;;7.40;65.90;;;;;;4995162;28;20071;-73
2022/03/24 01:15:36;;;;;;;18.35;10.68;;;6.70;66.00;;;;;;5006008;28;20028;-73
2022/03/24 01:18:03;;;;;;;14.60;9.65;;;7.40;66.00;;;;;;4995909;28;20398;-73
2022/03/24 01:20:30;;;;;;;14.98;9.30;;;7.40;66.40;;;;;;4994903;28;20494;-74
2022/03/24 01:22:56;;;;;;;16.17;10.05;;;7.00;67.00;;;;;;4994847;28;20034;-73
2022/03/24 01:25:26;;;;;;;15.70;10.18;;;7.20;67.40;;;;;;4993479;28;20030;-73
2022/03/24 01:27:53;;;;;;;15.18;10.18;;;7.10;67.30;;;;;;5006603;28;20029;-73
2022/03/24 01:30:20;;;;;;;15.38;10.15;;;7.10;67.70;;;;;;4994667;28;20105;-74
2022/03/24 01:32:46;;;;;;;15.68;9.90;;;7.10;67.90;;;;;;4994635;28;20038;-74
2022/03/24 01:35:12;;;;;;;15.50;9.57;;;7.00;67.80;;;;;;4994657;28;20042;-74
2022/03/24 01:37:40;;;;;;;14.35;9.13;;;7.00;67.60;;;;;;4997387;28;20022;-73
2022/03/24 01:40:09;;;;;;;12.77;8.40;;;7.00;67.70;;;;;;4991050;28;20041;-74
2022/03/24 01:42:36;;;;;;;14.77;8.65;;;7.40;67.70;;;;;;4993424;28;20022;-73
2022/03/24 01:45:04;;;;;;;13.63;9.38;;;6.50;67.80;;;;;;4994567;28;20026;-73
2022/03/24 01:47:30;;;;;;;16.50;10.00;;;7.00;67.50;;;;;;4994074;28;20854;-73
2022/03/24 01:49:58;;;;;;;15.73;10.18;;;6.40;67.90;;;;;;4994345;28;20087;-73
2022/03/24 01:52:26;;;;;;;12.65;8.95;;;6.90;67.90;;;;;;4992747;28;20484;-73
2022/03/24 01:54:57;;;;;;;16.38;9.20;;;6.90;67.90;;;;;;4991001;28;20128;-73
2022/03/24 01:57:25;;;;;;;14.30;8.35;;;6.90;68.20;;;;;;5004893;28;20485;-73
2022/03/24 01:59:52;;;;;;;11.95;7.60;;;6.90;68.70;;;;;;4994981;28;20066;-73
2022/03/24 02:02:18;;;;;;;11.88;7.57;;;6.90;68.80;;;;;;4996416;28;20029;-73
2022/03/24 02:04:45;;;;;;;12.02;8.02;;;6.90;69.00;;;;;;5004176;28;20033;-73
2022/03/24 02:07:11;;;;;;;13.30;7.97;;;6.80;69.00;;;;;;5004615;28;20054;-73
2022/03/24 02:09:38;;;;;;;13.68;8.30;;;6.80;69.40;;;;;;4992228;28;20079;-73
2022/03/24 02:12:09;;;;;;;15.65;8.23;;;6.80;69.40;;;;;;4997332;28;20036;-73
2022/03/24 02:14:35;;;;;;;14.57;8.32;;;6.80;69.30;;;;;;5005726;28;20037;-73
2022/03/24 02:17:02;;;;;;;13.45;8.73;;;6.80;70.30;;;;;;5003751;28;20405;-73
2022/03/24 02:19:28;;;;;;;16.90;8.50;;;6.80;69.20;;;;;;5003673;28;20030;-74
2022/03/24 02:21:56;;;;;;;13.20;8.50;;;7.10;69.80;;;;;;5005638;28;20543;-73
2022/03/24 02:24:24;;;;;;;12.98;8.32;;;6.70;68.90;;;;;;5002205;28;20041;-73
2022/03/24 02:26:51;;;;;;;13.35;8.52;;;6.70;68.90;;;;;;4997317;28;20116;-73
2022/03/24 02:29:19;;;;;;;13.05;8.63;;;6.70;68.90;;;;;;5000313;28;20412;-74
2022/03/24 02:31:50;;;;;;;13.05;8.65;;;6.70;68.90;;;;;;4999549;28;20018;-74
2022/03/24 02:34:37;;;;;;;12.55;8.07;;;8.40;70.70;;;;;;5002822;28;20034;-73
2022/03/24 02:37:09;;;;;;;12.18;8.07;;;6.60;69.10;;;;;;4993272;28;20026;-73
2022/03/24 02:39:38;;;;;;;13.38;8.10;;;6.60;69.00;;;;;;5003398;28;20029;-73
2022/03/24 02:42:05;;;;;;;13.75;8.00;;;6.50;69.10;;;;;;4996219;28;20124;-72
2022/03/24 02:44:32;;;;;;;16.02;7.95;;;6.50;69.20;;;;;;5006440;28;20485;-73
2022/03/24 02:47:01;;;;;;;12.73;8.00;;;5.60;70.20;;;;;;5003699;28;20105;-73
2022/03/24 02:49:31;;;;;;;11.70;7.15;;;6.40;69.20;;;;;;5003151;28;20026;-73
2022/03/24 02:51:58;;;;;;;12.32;7.88;;;6.40;69.10;;;;;;5009104;28;20454;-73
2022/03/24 02:54:25;;;;;;;11.65;7.78;;;6.40;69.20;;;;;;5011896;28;20049;-73
2022/03/24 02:56:51;;;;;;;12.70;7.78;;;6.30;69.60;;;;;;4998609;28;20113;-73
2022/03/24 02:59:17;;;;;;;11.52;7.78;;;6.40;71.40;;;;;;5006192;28;20520;-73
2022/03/24 03:02:00;;;;;;;13.30;7.95;;;6.30;70.20;;;;;;5007504;28;20018;-74
2022/03/24 03:04:27;;;;;;;12.68;7.78;;;6.30;70.10;;;;;;4998745;28;20057;-73
2022/03/24 03:06:56;;;;;;;14.48;7.78;;;6.30;70.40;;;;;;4994139;28;20040;-74
2022/03/24 03:09:22;;;;;;;11.48;7.78;;;6.30;70.40;;;;;;5010457;28;20053;-73
2022/03/24 03:11:49;;;;;;;12.68;7.65;;;6.20;70.30;;;;;;5006946;28;20063;-73
2022/03/24 03:14:17;;;;;;;12.77;7.90;;;6.20;69.90;;;;;;5005686;28;20041;-73
2022/03/24 03:16:44;;;;;;;11.38;7.53;;;6.20;69.60;;;;;;5007111;28;20029;-73
2022/03/24 03:19:11;;;;;;;13.38;7.72;;;;;;;;;;4995014;28;20084;-73
2022/03/24 03:21:37;;;;;;;12.57;8.35;;;5.40;68.20;;;;;;5010963;28;20034;-73
2022/03/24 03:24:04;;;;;;;12.48;8.32;;;6.10;68.60;;;;;;4997282;28;20137;-73
2022/03/24 03:26:30;;;;;;;13.13;9.07;;;6.10;69.10;;;;;;5006552;28;20705;-73
2022/03/24 03:28:56;;;;;;;14.10;9.00;;;6.10;69.30;;;;;;5005186;28;20037;-74
2022/03/24 03:31:22;;;;;;;14.00;8.65;;;6.00;69.40;;;;;;5005108;28;20030;-73
2022/03/24 03:33:50;;;;;;;15.27;9.02;;;6.00;69.80;;;;;;4994039;28;20033;-74
2022/03/24 03:36:18;;;;;;;13.15;8.55;;;6.00;70.10;;;;;;5010468;28;20030;-73
2022/03/24 03:38:45;;;;;;;13.15;8.95;;;6.00;70.40;;;;;;4998501;28;20054;-72
2022/03/24 03:41:15;;;;;;;16.13;9.52;;;5.90;70.60;;;;;;4998760;28;20037;-73
2022/03/24 03:43:44;;;;;;;12.20;8.05;;;5.90;70.50;;;;;;4996583;28;20390;-73
2022/03/24 03:46:11;;;;;;;15.48;8.77;;;5.90;70.90;;;;;;5003521;28;20037;-73
2022/03/24 03:48:37;;;;;;;14.38;9.10;;;5.90;70.60;;;;;;4994689;28;20029;-74
2022/03/24 03:51:08;;;;;;;13.55;8.70;;;5.90;70.20;;;;;;5008640;28;20029;-73
2022/03/24 03:53:34;;;;;;;14.63;9.05;;;5.80;70.20;;;;;;5007196;28;20484;-73
2022/03/24 03:56:01;;;;;;;12.90;8.57;;;5.80;70.40;;;;;;5008670;28;20054;-73
2022/03/24 03:58:26;;;;;;;11.98;8.48;;;5.80;70.20;;;;;;5007174;28;20030;-73
2022/03/24 04:00:52;;;;;;;16.83;9.10;;;6.00;69.70;;;;;;4991998;28;20025;-73
2022/03/24 04:03:25;;;;;;;14.63;8.77;;;5.70;70.00;;;;;;5005529;28;20030;-73
2022/03/24 04:05:59;;;;;;;16.95;9.98;;;5.80;69.70;;;;;;5007445;28;20026;-73
2022/03/24 04:08:27;;;;;;;15.45;10.00;;;5.70;70.00;;;;;;4999989;28;20128;-74
2022/03/24 04:10:53;;;;;;;16.15;10.13;;;5.70;70.10;;;;;;4998532;28;20026;-73
2022/03/24 04:13:19;;;;;;;14.73;8.95;;;5.70;70.30;;;;;;5009467;28;20612;-73
2022/03/24 04:15:49;;;;;;;13.85;8.73;;;5.70;70.60;;;;;;5008728;28;20088;-74
2022/03/24 04:18:16;;;;;;;14.48;9.50;;;5.70;71.40;;;;;;4995600;28;20023;-74
2022/03/24 04:20:42;;;;;;;15.68;8.98;;;5.70;71.80;;;;;;4995863;28;20050;-74
2022/03/24 04:23:08;;;;;;;13.95;8.57;;;5.60;72.00;;;;;;4996705;28;20030;-73
2022/03/24 04:25:35;;;;;;;14.25;9.40;;;5.60;72.10;;;;;;4995764;28;20034;-74
2022/03/24 04:28:01;;;;;;;15.75;9.13;;;5.60;72.50;;;;;;4996250;28;20405;-74
2022/03/24 04:30:27;;;;;;;14.52;9.05;;;5.60;72.30;;;;;;4995802;28;20065;-74
2022/03/24 04:32:54;;;;;;;13.55;8.68;;;5.60;72.20;;;;;;5003954;28;20014;-74
2022/03/24 04:35:21;;;;;;;15.18;9.23;;;5.30;71.30;;;;;;5005557;28;20069;-74
2022/03/24 04:37:49;;;;;;;14.77;9.23;;;5.50;71.70;;;;;;5007245;28;20033;-73
2022/03/24 04:40:16;;;;;;;14.23;9.45;;;5.50;71.90;;;;;;4992832;28;20026;-73
2022/03/24 04:42:43;;;;;;;15.43;9.25;;;5.50;72.20;;;;;;4999051;28;20021;-74
2022/03/24 04:45:09;;;;;;;17.05;9.35;;;5.40;72.20;;;;;;4996091;28;20053;-74
2022/03/24 04:47:36;;;;;;;30.95;9.63;;;5.40;72.20;;;;;;4996812;28;20402;-74
2022/03/24 04:50:03;;;;;;;28.20;10.02;;;5.30;72.30;;;;;;4997422;28;20062;-73
2022/03/24 04:52:29;;;;;;;27.80;10.20;;;5.30;72.40;;;;;;4994551;28;20522;-73
2022/03/24 04:54:55;;;;;;;18.00;9.82;;;5.30;72.60;;;;;;5002088;28;20125;-73
2022/03/24 04:57:21;;;;;;;18.27;10.23;;;5.30;72.80;;;;;;4997221;28;20076;-73
2022/03/24 04:59:47;;;;;;;18.17;9.13;;;5.30;72.90;;;;;;5000545;28;20033;-74
2022/03/24 05:02:15;;;;;;;17.80;8.68;;;;;;;;;;5001364;28;20485;-74
2022/03/24 05:04:45;;;;;;;18.25;9.25;;;5.30;72.40;;;;;;5005632;28;20100;-73
2022/03/24 05:07:11;;;;;;;18.42;9.82;;;5.30;73.00;;;;;;4991694;28;20029;-73
2022/03/24 05:09:38;;;;;;;14.18;9.60;;;5.30;73.10;;;;;;5009132;28;20529;-73
2022/03/24 05:12:05;;;;;;;18.55;10.20;;;5.20;72.90;;;;;;5006832;28;20030;-73
2022/03/24 05:14:32;;;;;;;15.00;9.75;;;5.20;73.00;;;;;;4998546;28;20149;-73
2022/03/24 05:16:58;;;;;;;17.45;10.57;;;5.20;73.00;;;;;;5001275;28;20521;-73
2022/03/24 05:19:28;;;;;;;16.52;10.80;;;4.80;73.50;;;;;;5007103;28;20038;-73
2022/03/24 05:21:58;;;;;;;18.20;10.15;;;5.20;73.30;;;;;;5007391;28;20084;-73
2022/03/24 05:24:28;;;;;;;15.80;10.38;;;5.20;73.30;;;;;;4994824;28;20034;-73
2022/03/24 05:26:58;;;;;;;16.13;9.73;;;5.10;73.10;;;;;;5006772;28;20117;-73
2022/03/24 05:29:27;;;;;;;15.25;9.95;;;5.10;73.90;;;;;;5004196;28;20026;-73
2022/03/24 05:31:57;;;;;;;15.57;9.23;;;5.00;74.20;;;;;;5003140;28;20026;-73
2022/03/24 05:34:27;;;;;;;18.93;8.90;;;5.00;74.10;;;;;;5004076;28;20046;-73
2022/03/24 05:36:59;;;;;;;15.93;9.45;;;5.00;73.80;;;;;;5007118;28;20117;-73
2022/03/24 05:39:25;;;;;;;13.32;8.65;;;5.00;73.90;;;;;;4995176;28;20038;-72
2022/03/24 05:41:51;;;;;;;13.15;8.30;;;;;;;;;;5009426;28;20034;-72
2022/03/24 05:44:17;;;;;;;17.25;9.50;;;;;;;;;;4999387;28;20417;-72
2022/03/24 05:46:44;;;;;;;15.07;9.18;;;;;;;;;;5004778;28;20097;-74
2022/03/24 05:49:14;;;;;;;16.85;10.05;;;;;;;;;;5006997;28;20496;-75
2022/03/24 05:51:42;;;;;;;17.27;9.30;;;;;;;;;;5007065;28;20116;-74
2022/03/24 05:54:09;;;;;;;15.48;9.25;;;;;;;;;;5003309;28;20036;-74
2022/03/24 05:56:35;;;;;;;17.17;9.23;;;;;;;;;;5006998;28;20097;-73
2022/03/24 05:59:02;;;;;;;15.60;9.25;;;;;;;;;;5004424;28;20149;-73
2022/03/24 06:01:28;;;;;;;15.02;9.10;;;;;;;;;;5005619;28;20030;-73
2022/03/24 06:03:55;;;;;;;14.10;8.68;;;;;;;;;;5006674;28;20164;-73
2022/03/24 06:06:22;;;;;;;13.30;8.80;;;5.00;74.40;;;;;;5000839;28;20064;-74
2022/03/24 06:08:52;;;;;;;15.43;9.90;;;;;;;;;;5013611;28;20065;-75
2022/03/24 06:11:19;;;;;;;14.60;9.27;;;5.00;73.50;;;;;;5003259;28;20040;-73
2022/03/24 06:13:48;;;;;;;14.75;9.20;;;;;;;;;;5003609;28;20519;-73
2022/03/24 06:16:14;;;;;;;19.58;9.38;;;5.40;99.90;;;;;;4999587;28;20023;-74
2022/03/24 06:18:40;;;;;;;17.95;8.18;;;;;;;;;;5003816;28;20932;-73
2022/03/24 06:21:07;;;;;;;15.43;8.48;;;;;;;;;;5004796;28;20452;-75
2022/03/24 06:23:33;;;;;;;18.77;9.15;;;5.30;98.70;;;;;;5005238;28;20049;-74
2022/03/24 06:25:59;;;;;;;15.43;8.80;;;;;;;;;;5006193;28;20068;-74
2022/03/24 06:28:25;;;;;;;19.38;9.50;;;7.10;63.30;;;;;;5008973;28;20087;-75
2022/03/24 06:30:51;;;;;;;14.27;9.50;;;7.20;72.40;;;;;;5006937;28;20038;-75
2022/03/24 06:33:17;;;;;;;14.30;9.20;;;8.50;59.20;;;;;;4997587;28;20058;-73
2022/03/24 06:35:45;;;;;;;12.65;8.40;;;8.90;94.80;;;;;;5000435;28;20034;-75
2022/03/24 06:38:12;;;;;;;15.85;9.07;;;8.90;93.10;;;;;;5008413;28;20033;-74
2022/03/24 06:40:39;;;;;;;14.65;9.93;;;10.50;88.90;;;;;;5007217;28;20037;-73
2022/03/24 06:43:07;;;;;;;13.82;9.98;;;10.70;51.20;;;;;;5003305;28;20049;-73
2022/03/24 06:45:34;;;;;;;13.68;9.70;;;10.70;52.10;;;;;;5010457;28;20018;-73
2022/03/24 06:48:00;;;;;;;15.98;9.20;;;11.40;50.20;;;;;;5008348;28;20058;-73
2022/03/24 06:50:27;;;;;;;13.25;8.93;;;11.90;48.40;;;;;;5007249;28;20025;-74
2022/03/24 06:52:53;;;;;;;11.65;8.25;;;;;;;;;;5007791;28;20040;-73
2022/03/24 06:55:19;;;;;;;11.85;9.00;;;13.40;43.40;;;;;;5006805;28;20030;-74
2022/03/24 06:57:46;;;;;;;15.07;9.40;;;13.90;42.20;;;;;;5004838;28;20033;-73
2022/03/24 07:00:15;;;;;;;13.73;8.82;;;14.50;41.20;;;;;;5003654;28;20033;-75
2022/03/24 07:02:42;;;;;;;13.85;9.13;;;14.90;40.00;;;;;;5000677;28;20037;-73
2022/03/24 07:05:08;;;;;;;22.08;9.27;;;;;;;;;;5003017;28;20030;-74
2022/03/24 07:07:35;;;;;;;26.75;9.98;;;17.70;63.30;;;;;;5007819;28;20407;-74
2022/03/24 07:10:01;;;;;;;24.85;11.20;;;17.90;55.00;;;;;;5007664;28;20037;-74
2022/03/24 07:12:27;;;;;;;18.50;11.25;;;;;;;;;;5023523;28;20030;-75
2022/03/24 07:14:53;;;;;;;17.70;10.77;;;;;;;;;;5004928;28;20037;-75
2022/03/24 07:17:19;;;;;;;19.95;11.05;;;18.50;49.30;;;;;;5001446;28;20034;-75
2022/03/24 07:19:45;;;;;;;17.13;11.70;;;20.10;37.30;;;;;;5008703;28;20042;-75
2022/03/24 07:22:11;;;;;;;16.40;11.32;;;;;;;;;;5006512;28;20022;-75
2022/03/24 07:24:38;;;;;;;25.88;11.65;;;20.80;43.90;;;;;;5009145;28;20113;-75
2022/03/24 07:27:05;;;;;;;22.60;13.13;;;17.20;38.70;;;;;;5007538;28;20145;-75
2022/03/24 07:29:30;;;;;;;18.83;12.57;;;22.20;34.60;;;;;;5006703;28;20112;-75
2022/03/24 07:31:56;;;;;;;22.33;12.40;;;23.10;38.40;;;;;;5000746;28;20577;-74
2022/03/24 07:34:23;;;;;;;19.45;12.55;;;23.80;42.60;;;;;;5004727;28;20038;-74
2022/03/24 07:36:49;;;;;;;17.15;10.57;;;;;;;;;;5012387;28;20048;-75
2022/03/24 07:39:17;;;;;;;14.98;10.55;;;24.20;37.70;;;;;;5005497;28;20125;-75
2022/03/24 07:41:45;;;;;;;15.45;10.80;;;24.70;41.10;;;;;;5005630;28;20576;-74
2022/03/24 07:44:14;;;;;;;16.98;11.65;;;23.10;27.30;;;;;;5002927;28;20038;-74
2022/03/24 07:46:45;;;;;;;16.85;12.27;;;23.60;26.80;;;;;;4996548;28;20026;-74
2022/03/24 07:49:12;;;;;;;21.40;12.07;;;24.10;26.20;;;;;;4998662;28;20493;-74
2022/03/24 07:51:46;;;;;;;19.60;12.40;;;24.60;25.70;;;;;;5002210;28;20097;-74
2022/03/24 07:54:13;;;;;;;14.50;11.60;;;25.00;25.00;;;;;;5006633;28;20072;-73
2022/03/24 07:56:43;;;;;;;21.75;13.95;;;26.30;26.40;;;;;;5005745;28;20440;-73
2022/03/24 07:59:16;;;;;;;17.33;13.55;;;26.10;24.10;;;;;;5001091;28;20057;-74
2022/03/24 08:01:45;;;;;;;25.85;13.80;;;26.70;23.70;;;;;;4997860;28;20022;-73
2022/03/24 08:04:14;;;;;;;20.95;14.90;;;27.20;23.00;;;;;;5006988;28;20027;-73
2022/03/24 08:06:42;;;;;;;19.98;14.18;;;27.60;22.60;;;;;;5006691;28;20033;-73
2022/03/24 08:09:11;;;;;;;21.60;14.27;;;28.00;22.20;;;;;;5009691;28;20050;-73
2022/03/24 08:11:39;;;;;;;21.90;14.98;;;28.50;22.50;;;;;;5004586;28;20033;-73
2022/03/24 08:14:12;;;;;;;20.63;15.45;;;30.20;24.20;;;;;;5005525;28;20100;-74
2022/03/24 08:16:45;;;;;;;22.05;15.75;;;30.10;22.50;;;;;;5006665;28;20076;-73
2022/03/24 08:19:14;;;;;;;27.90;19.85;;;29.90;20.80;;;;;;4994219;28;20030;-73
2022/03/24 08:21:43;;;;;;;21.97;16.47;;;28.00;20.70;;;;;;5007421;28;20120;-74
2022/03/24 08:24:12;;;;;;;21.13;16.70;;;31.20;19.10;;;;;;4997504;28;20053;-74
2022/03/24 08:26:41;;;;;;;22.35;16.95;;;31.60;25.50;;;;;;5000011;28;20038;-74
2022/03/24 08:29:07;;;;;;;22.25;17.48;;;31.70;19.50;;;;;;5003999;28;20110;-74
2022/03/24 08:31:36;;;;;;;26.35;17.60;;;32.40;19.10;;;;;;5004717;28;20036;-74
2022/03/24 08:34:04;;;;;;;25.02;17.50;;;33.00;18.70;;;;;;5004028;28;20057;-74
2022/03/24 08:36:36;;;;;;;21.63;17.73;;;33.60;18.30;;;;;;5006882;28;20091;-74
2022/03/24 08:39:04;;;;;;;22.38;18.13;;;34.20;17.90;;;;;;5008118;28;20109;-73
2022/03/24 08:41:36;;;;;;;22.85;16.90;;;34.80;17.50;;;;;;5006683;28;20120;-76
2022/03/24 08:44:06;;;;;;;21.30;17.77;;;35.30;17.00;;;;;;5003583;28;20504;-74
2022/03/24 08:46:37;;;;;;;24.05;18.60;;;35.80;16.80;;;;;;5006111;28;20049;-74
2022/03/24 08:49:06;;;;;;;24.98;19.10;;;36.40;16.50;;;;;;4999122;28;20116;-74
2022/03/24 08:51:34;;;;;;;23.85;19.42;;;36.80;15.80;;;;;;5005137;28;20040;-73
2022/03/24 08:54:03;;;;;;;24.73;20.38;;;37.20;15.40;;;;;;5008629;28;20088;-74
2022/03/24 08:56:32;;;;;;;26.17;20.73;;;37.60;14.70;;;;;;5006182;28;20058;-74
2022/03/24 08:59:00;;;;;;;23.80;21.15;;;37.60;14.00;;;;;;5003484;28;20070;-74
2022/03/24 09:01:29;;;;;;;23.27;20.77;;;37.50;13.90;;;;;;4993878;28;20459;-74
2022/03/24 09:03:56;;;;;;;24.27;21.73;;;37.30;13.70;;;;;;5004276;28;20033;-74
2022/03/24 09:06:27;;;;;;;30.70;21.75;;;37.00;13.90;;;;;;5005937;28;20033;-74
2022/03/24 09:08:54;;;;;;;25.33;22.25;;;36.80;14.00;;;;;;5006961;28;20046;-73
2022/03/24 09:11:21;;;;;;;25.83;21.92;;;36.80;13.80;;;;;;5004483;28;20104;-74
2022/03/24 09:13:49;;;;;;;31.15;23.05;;;36.70;13.70;;;;;;5006071;28;20563;-74
2022/03/24 09:16:16;;;;;;;26.23;22.35;;;36.80;13.90;;;;;;4994116;28;20060;-74
2022/03/24 09:18:43;;;;;;;25.67;22.08;;;36.90;13.70;;;;;;5006358;28;20100;-74
2022/03/24 09:21:11;;;;;;;29.63;22.15;;;37.10;13.60;;;;;;5007876;28;20108;-74
2022/03/24 09:23:41;;;;;;;25.83;22.42;;;37.40;13.40;;;;;;5006938;28;20034;-74
2022/03/24 09:26:08;;;;;;;26.90;22.15;;;37.70;13.00;;;;;;5001881;28;20033;-74
2022/03/24 09:28:36;;;;;;;31.45;22.77;;;37.80;13.00;;;;;;5005951;28;20389;-74
2022/03/24 09:31:03;;;;;;;29.25;22.65;;;38.10;13.00;;;;;;4999801;28;20025;-74
2022/03/24 09:33:29;;;;;;;25.05;21.63;;;38.30;12.80;;;;;;5008895;28;20030;-74
2022/03/24 09:35:56;;;;;;;26.17;21.77;;;38.50;13.00;;;;;;5002371;28;20041;-75
2022/03/24 09:38:22;;;;;;;24.88;22.25;;;38.90;12.60;;;;;;5003750;28;20026;-75
2022/03/24 09:40:50;;;;;;;24.13;21.58;;;39.30;12.30;;;;;;5003185;28;20030;-75
2022/03/24 09:43:20;;;;;;;24.63;20.88;;;39.60;12.40;;;;;;5005402;28;20030;-75
2022/03/24 09:45:51;;;;;;;25.83;21.13;;;39.90;12.40;;;;;;5008356;28;20030;-71
2022/03/24 09:48:17;;;;;;;32.30;21.45;;;40.40;11.80;;;;;;5006136;28;20492;-72
2022/03/24 09:50:46;;;;;;;26.02;21.25;;;40.70;12.00;;;;;;5002544;28;20032;-72
2022/03/24 09:53:17;;;;;;;23.53;20.87;;;41.00;11.50;;;;;;5005324;28;20040;-71
2022/03/24 09:55:44;;;;;;;26.58;21.38;;;41.30;11.50;;;;;;5004200;28;20030;-71
2022/03/24 09:58:11;;;;;;;62.30;22.25;;;41.90;11.40;;;;;;4990031;28;20058;-71
2022/03/24 10:00:43;;;;;;;24.85;21.17;;;42.20;10.70;;;;;;5004351;28;20044;-71
2022/03/24 10:03:22;;;;;;;25.88;20.20;;;42.30;10.60;;;;;;5006249;28;20022;-71
2022/03/24 10:06:06;;;;;;;29.23;20.87;;;42.30;10.60;;;;;;5006988;28;20037;-71
2022/03/24 10:08:38;;;;;;;24.95;20.45;;;42.50;10.60;;;;;;4997591;28;20571;-71
2022/03/24 10:11:14;;;;;;;22.90;20.30;;;42.40;10.40;;;;;;4995274;28;20164;-71
2022/03/24 10:13:53;;;;;;;24.42;21.13;;;42.30;10.50;;;;;;5006615;28;20029;-71
2022/03/24 10:16:41;;;;;;;27.52;19.98;;;42.60;10.40;;;;;;4991928;28;20030;-72
2022/03/24 10:19:12;;;;;;;28.10;20.90;;;42.90;10.30;;;;;;4993988;28;20084;-71
2022/03/24 10:21:46;;;;;;;27.90;20.80;;;43.20;10.10;;;;;;5007569;28;20022;-71
2022/03/24 10:24:22;;;;;;;27.48;20.70;;;43.40;10.00;;;;;;5008122;28;20025;-71
2022/03/24 10:27:02;;;;;;;24.67;20.27;;;43.70;10.10;;;;;;5003337;28;20037;-72
2022/03/24 10:29:31;;;;;;;23.85;19.00;;;44.30;9.90;;;;;;4998114;28;20030;-71
2022/03/24 10:32:01;;;;;;;;;;;44.50;9.60;;;;;;5000460;28;20014;-71
2022/03/24 10:34:33;;;;;;;26.50;18.92;;;44.90;9.70;;;;;;4992654;28;20352;-71
2022/03/24 10:37:12;;;;;;;23.10;19.98;;;45.30;9.50;;;;;;4991412;28;20118;-71
2022/03/24 10:39:39;;;;;;;22.40;20.00;;;45.70;9.30;;;;;;5004357;28;20029;-71
2022/03/24 10:42:12;;;;;;;22.65;20.20;;;45.30;7.80;;;;;;5002877;28;20022;-71
2022/03/24 10:45:06;;;;;;;23.95;19.67;;;45.90;8.80;;;;;;5015205;28;20165;-71
2022/03/24 10:47:42;;;;;;;22.92;19.42;;;45.90;9.10;;;;;;5018911;28;20681;-71
2022/03/24 10:50:26;;;;;;;25.42;19.80;;;46.20;8.80;;;;;;5000609;28;20030;-72
2022/03/24 10:52:53;;;;;;;26.25;19.77;;;46.60;9.10;;;;;;4993787;28;20029;-72
2022/03/24 10:55:58;;;;;;;24.48;19.45;;;46.60;8.00;;;;;;5001277;28;20249;-71
2022/03/24 10:58:27;;;;;;;23.75;19.98;;;46.50;8.60;;;;;;5004827;28;20057;-71
2022/03/24 11:01:03;;;;;;;22.45;19.48;;;46.80;8.40;;;;;;5005573;28;20037;-71
2022/03/24 11:03:36;;;;;;;26.02;20.73;;;46.30;8.20;;;;;;5007962;28;20039;-71
2022/03/24 11:06:11;;;;;;;22.02;18.88;;;46.30;8.90;;;;;;5003575;28;20580;-71
2022/03/24 11:08:38;;;;;;;25.88;20.35;;;46.20;8.90;;;;;;5004206;28;20034;-73
2022/03/24 11:11:19;;;;;;;28.00;20.38;;;46.60;8.70;;;;;;5008706;28;20029;-70
2022/03/24 11:13:51;;;;;;;21.38;19.08;;;46.70;8.50;;;;;;5005434;28;20155;-71
2022/03/24 11:16:25;;;;;;;20.35;17.48;;;46.80;8.40;;;;;;5008575;28;20033;-71
2022/03/24 11:18:52;;;;;;;20.73;18.00;;;47.20;8.40;;;;;;4994557;28;20058;-72
2022/03/24 11:21:33;;;;;;;19.67;16.52;;;47.40;8.30;;;;;;5012306;28;20081;-71
2022/03/24 11:24:00;;;;;;;18.80;16.85;;;47.40;8.10;;;;;;4999286;28;20030;-71
2022/03/24 11:26:26;;;;;;;19.35;16.08;;;47.50;7.90;;;;;;5004765;28;20037;-71
2022/03/24 11:28:57;;;;;;;22.70;17.00;;;47.60;7.70;;;;;;5005769;28;20057;-71
2022/03/24 11:31:24;;;;;;;18.08;16.27;;;47.70;7.70;;;;;;5006809;28;20485;-71
2022/03/24 11:33:52;;;;;;;17.70;15.80;;;47.90;7.60;;;;;;4994761;28;20480;-71
2022/03/24 11:36:21;;;;;;;19.25;17.20;;;47.50;7.80;;;;;;4996941;28;20042;-71
2022/03/24 11:38:53;;;;;;;20.20;16.30;;;46.90;7.60;;;;;;4997230;28;20038;-71
2022/03/24 11:41:35;;;;;;;16.60;14.85;;;47.00;7.80;;;;;;5001711;28;20033;-72
2022/03/24 11:44:18;;;;;;;18.75;16.67;;;47.80;7.00;;;;;;5009874;28;20052;-72
2022/03/24 11:46:54;;;;;;;19.48;17.08;;;47.80;7.70;;;;;;5018899;28;20018;-72
2022/03/24 11:49:24;;;;;;;19.30;17.15;;;47.70;7.60;;;;;;5005775;28;20030;-73
2022/03/24 11:51:58;;;;;;;17.98;14.85;;;47.80;7.60;;;;;;5001969;28;20038;-72
2022/03/24 11:54:36;;;;;;;18.75;15.32;;;47.90;7.60;;;;;;4999323;28;20042;-72
2022/03/24 11:57:27;;;;;;;20.40;15.77;;;47.80;7.80;;;;;;5005144;28;20500;-72
2022/03/24 12:00:28;;;;;;;17.73;15.90;;;47.40;7.50;;;;;;5008759;28;20061;-72
2022/03/24 12:03:00;;;;;;;17.48;15.68;;;47.60;6.50;;;;;;4961280;28;20590;-72
2022/03/24 12:05:48;;;;;;;16.95;15.25;;;45.00;6.20;;;;;;4986264;28;20560;-71
2022/03/24 12:08:14;;;;;;;;;;;47.80;7.10;;;;;;4978283;28;20049;-71
2022/03/24 12:10:40;;;;;;;17.30;14.43;;;48.00;7.30;;;;;;4988309;28;20000;-71
2022/03/24 12:13:21;;;;;;;17.75;13.63;;;48.30;7.70;;;;;;4971010;28;20034;-72
2022/03/24 12:16:13;;;;;;;16.50;14.70;;;48.20;6.10;;;;;;4987946;28;20489;-72
2022/03/24 12:18:41;;;;;;;16.70;13.68;;;49.10;6.40;;;;;;4982880;28;20101;-71
2022/03/24 12:21:07;;;;;;;18.80;14.67;;;;;;;;;;4986452;28;20045;-71
2022/03/24 12:24:04;;;;;;;15.90;14.27;;;49.10;6.40;;;;;;4988057;28;20105;-72
2022/03/24 12:26:31;;;;;;;17.67;13.40;;;49.10;6.50;;;;;;4987751;28;20038;-73
2022/03/24 12:29:12;;;;;;;15.68;13.80;;;49.10;7.10;;;;;;4987971;28;20023;-71
2022/03/24 12:32:07;;;;;;;21.48;13.43;;;49.00;6.10;;;;;;4987264;28;20104;-72
2022/03/24 12:34:39;;;;;;;17.40;13.40;;;49.00;6.80;;;;;;4987615;28;20022;-72
